createdAt,value
2022-09-26T00:01:37.695Z,65.60
2022-09-26T00:04:10.321Z,68.55
2022-09-26T00:06:37.493Z,69.95
2022-09-26T00:09:04.922Z,71.28
2022-09-26T00:11:34.256Z,76.10
2022-09-26T00:14:07.647Z,72.00
2022-09-26T00:16:35.342Z,78.47
2022-09-26T00:19:03.406Z,71.32
2022-09-26T00:21:31.366Z,78.07
2022-09-26T00:24:00.632Z,76.82
2022-09-26T00:26:30.253Z,85.72
2022-09-26T00:28:58.205Z,82.07
2022-09-26T00:31:28.982Z,81.28
2022-09-26T00:33:57.378Z,86.72
2022-09-26T00:36:36.902Z,80.35
2022-09-26T00:39:06.659Z,71.18
2022-09-26T00:41:33.857Z,71.57
2022-09-26T00:44:01.238Z,80.57
2022-09-26T00:46:48.065Z,77.35
2022-09-26T00:49:42.149Z,80.43
2022-09-26T00:52:23.756Z,74.72
2022-09-26T00:54:55.322Z,78.97
2022-09-26T00:57:30.164Z,79.78
2022-09-26T01:00:01.727Z,89.13
2022-09-26T01:02:29.444Z,85.72
2022-09-26T01:04:58.663Z,82.07
2022-09-26T01:07:28.571Z,96.40
2022-09-26T01:09:57.507Z,108.82
2022-09-26T01:12:25.127Z,81.72
2022-09-26T01:14:54.510Z,85.10
2022-09-26T01:17:24.637Z,86.00
2022-09-26T01:20:00.551Z,93.82
2022-09-26T01:22:53.679Z,104.93
2022-09-26T01:25:56.154Z,97.70
2022-09-26T01:28:48.328Z,89.75
2022-09-26T01:31:36.455Z,97.80
2022-09-26T01:34:08.264Z,90.97
2022-09-26T01:36:49.707Z,96.28
2022-09-26T01:39:19.919Z,93.45
2022-09-26T01:41:53.736Z,97.25
2022-09-26T01:44:38.858Z,93.15
2022-09-26T01:47:14.223Z,92.05
2022-09-26T01:50:17.168Z,86.53
2022-09-26T01:53:03.528Z,86.13
2022-09-26T01:55:37.874Z,94.18
2022-09-26T01:58:21.376Z,142.27
2022-09-26T02:00:49.998Z,108.95
2022-09-26T02:03:27.371Z,96.30
2022-09-26T02:06:06.293Z,91.78
2022-09-26T02:08:41.787Z,94.05
2022-09-26T02:11:13.527Z,88.55
2022-09-26T02:14:03.797Z,102.55
2022-09-26T02:16:44.544Z,109.18
2022-09-26T02:19:36.999Z,108.45
2022-09-26T02:22:04.230Z,104.97
2022-09-26T02:24:31.474Z,114.05
2022-09-26T02:26:59.027Z,94.72
2022-09-26T02:29:26.408Z,94.25
2022-09-26T02:32:03.166Z,98.93
2022-09-26T02:34:30.649Z,97.10
2022-09-26T02:36:59.353Z,88.90
2022-09-26T02:39:30.031Z,95.88
2022-09-26T02:42:24.435Z,98.22
2022-09-26T02:45:11.944Z,94.82
2022-09-26T02:48:14.310Z,101.60
2022-09-26T02:51:02.875Z,102.00
2022-09-26T02:53:57.619Z,117.28
2022-09-26T02:56:55.334Z,115.13
2022-09-26T02:59:35.502Z,109.72
2022-09-26T03:02:22.976Z,126.05
2022-09-26T03:05:13.416Z,114.50
2022-09-26T03:07:56.686Z,133.80
2022-09-26T03:10:28.453Z,116.10
2022-09-26T03:13:01.692Z,124.68
2022-09-26T03:15:31.648Z,127.70
2022-09-26T03:18:00.356Z,133.88
2022-09-26T03:20:27.790Z,131.75
2022-09-26T03:22:56.198Z,147.90
2022-09-26T03:25:26.031Z,164.07
2022-09-26T03:28:05.630Z,136.88
2022-09-26T03:30:33.504Z,120.65
2022-09-26T03:33:19.101Z,122.18
2022-09-26T03:35:47.046Z,130.55
2022-09-26T03:38:14.858Z,120.53
2022-09-26T03:40:48.713Z,131.27
2022-09-26T03:43:50.857Z,132.90
2022-09-26T03:46:18.602Z,123.10
2022-09-26T03:48:45.862Z,115.70
2022-09-26T03:51:14.480Z,111.03
2022-09-26T03:53:43.800Z,113.78
2022-09-26T03:56:17.836Z,118.68
2022-09-26T03:58:45.507Z,101.43
2022-09-26T04:01:15.234Z,115.65
2022-09-26T04:03:49.285Z,121.68
2022-09-26T04:06:20.199Z,119.45
2022-09-26T04:08:49.885Z,114.80
2022-09-26T04:11:20.652Z,118.63
2022-09-26T04:13:52.315Z,111.68
2022-09-26T04:16:23.726Z,109.63
2022-09-26T04:18:57.441Z,105.25
2022-09-26T04:21:29.650Z,108.85
2022-09-26T04:23:59.299Z,100.20
2022-09-26T04:26:26.673Z,107.35
2022-09-26T04:28:56.501Z,115.53
2022-09-26T04:31:35.636Z,111.60
2022-09-26T04:34:11.186Z,106.47
2022-09-26T04:36:38.928Z,110.40
2022-09-26T04:39:06.589Z,107.57
2022-09-26T04:41:34.678Z,103.65
2022-09-26T04:44:02.035Z,109.90
2022-09-26T04:46:31.546Z,119.70
2022-09-26T04:49:01.496Z,103.85
2022-09-26T04:51:31.476Z,85.63
2022-09-26T04:53:59.299Z,90.95
2022-09-26T04:56:29.724Z,101.28
2022-09-26T04:58:58.941Z,84.97
2022-09-26T05:01:32.732Z,95.85
2022-09-26T05:04:10.014Z,93.63
2022-09-26T05:06:37.501Z,91.30
2022-09-26T05:09:06.235Z,85.55
2022-09-26T05:11:53.723Z,88.82
2022-09-26T05:14:21.075Z,95.60
2022-09-26T05:16:49.570Z,108.45
2022-09-26T05:19:17.757Z,100.53
2022-09-26T05:22:10.713Z,97.90
2022-09-26T05:24:56.586Z,88.82
2022-09-26T05:27:24.237Z,101.25
2022-09-26T05:29:56.977Z,92.70
2022-09-26T05:32:25.106Z,88.82
2022-09-26T05:34:52.485Z,92.00
2022-09-26T05:37:21.847Z,94.57
2022-09-26T05:40:08.658Z,87.75
2022-09-26T05:42:40.155Z,78.63
2022-09-26T05:45:08.759Z,82.45
2022-09-26T05:47:36.593Z,76.30
2022-09-26T05:50:16.042Z,83.78
2022-09-26T05:52:43.237Z,82.97
2022-09-26T05:55:17.131Z,76.05
2022-09-26T05:58:02.489Z,73.38
2022-09-26T06:00:55.346Z,72.15
2022-09-26T06:03:22.980Z,63.30
2022-09-26T06:06:07.715Z,63.90
2022-09-26T06:08:36.714Z,50.30
2022-09-26T06:11:30.502Z,49.83
2022-09-26T06:14:00.437Z,55.33
2022-09-26T06:16:28.871Z,54.92
2022-09-26T06:18:56.606Z,52.67
2022-09-26T06:21:24.348Z,45.42
2022-09-26T06:24:13.085Z,41.25
2022-09-26T06:26:41.470Z,40.92
2022-09-26T06:29:10.343Z,39.92
2022-09-26T06:31:40.564Z,45.63
2022-09-26T06:34:12.928Z,40.97
2022-09-26T06:37:06.179Z,40.80
2022-09-26T06:39:37.003Z,39.10
2022-09-26T06:42:07.248Z,41.58
2022-09-26T06:44:52.740Z,38.70
2022-09-26T06:47:25.939Z,39.80
2022-09-26T06:50:13.267Z,37.67
2022-09-26T06:52:44.097Z,36.25
2022-09-26T06:55:12.438Z,31.42
2022-09-26T06:57:42.473Z,35.58
2022-09-26T07:00:12.790Z,33.40
2022-09-26T07:03:03.141Z,30.30
2022-09-26T07:05:48.745Z,34.92
2022-09-26T07:08:16.897Z,32.55
2022-09-26T07:10:44.301Z,26.95
2022-09-26T07:13:24.463Z,27.13
2022-09-26T07:15:51.858Z,29.60
2022-09-26T07:18:47.973Z,28.80
2022-09-26T07:21:45.027Z,26.38
2022-09-26T07:24:34.990Z,32.53
2022-09-26T07:27:03.351Z,29.17
2022-09-26T07:29:30.630Z,29.95
2022-09-26T07:31:58.934Z,27.40
2022-09-26T07:34:43.851Z,26.58
2022-09-26T07:37:12.865Z,26.73
2022-09-26T07:39:40.166Z,27.40
2022-09-26T07:42:08.606Z,30.70
2022-09-26T07:47:42.288Z,23.77
2022-09-26T07:50:29.322Z,24.35
2022-09-26T07:53:20.108Z,26.25
2022-09-26T07:56:13.100Z,19.85
2022-09-26T07:59:00.704Z,18.88
2022-09-26T08:01:52.677Z,20.73
2022-09-26T08:04:49.667Z,15.68
2022-09-26T08:07:18.145Z,19.55
2022-09-26T08:10:02.969Z,18.17
2022-09-26T08:13:02.155Z,15.23
2022-09-26T08:15:43.332Z,18.40
2022-09-26T08:18:15.888Z,14.95
2022-09-26T08:20:47.199Z,16.77
2022-09-26T08:23:16.267Z,13.38
2022-09-26T08:25:45.210Z,13.43
2022-09-26T08:28:23.995Z,16.40
2022-09-26T08:30:52.497Z,15.82
2022-09-26T08:33:21.668Z,15.63
2022-09-26T08:35:49.919Z,17.45
2022-09-26T08:38:49.862Z,15.45
2022-09-26T08:42:33.851Z,14.60
2022-09-26T08:45:56.778Z,16.10
2022-09-26T08:49:21.456Z,13.70
2022-09-26T08:51:52.428Z,15.65
2022-09-26T08:54:42.579Z,14.05
2022-09-26T08:58:04.360Z,16.25
2022-09-26T09:00:38.095Z,14.35
2022-09-26T09:03:25.742Z,15.38
2022-09-26T09:06:06.067Z,13.50
2022-09-26T09:08:39.911Z,13.55
2022-09-26T09:11:57.793Z,13.98
2022-09-26T09:14:57.964Z,13.85
2022-09-26T09:17:56.391Z,13.55
2022-09-26T09:21:08.823Z,14.80
2022-09-26T09:24:02.838Z,15.48
2022-09-26T09:29:49.465Z,14.57
2022-09-26T09:33:07.170Z,14.00
2022-09-26T09:35:48.963Z,13.98
2022-09-26T09:38:45.808Z,14.73
2022-09-26T09:41:50.827Z,16.02
2022-09-26T09:44:52.446Z,15.23
2022-09-26T09:47:20.776Z,13.43
2022-09-26T09:49:50.047Z,15.15
2022-09-26T09:52:29.883Z,15.38
2022-09-26T09:55:31.352Z,14.73
2022-09-26T09:58:14.005Z,14.60
2022-09-26T10:00:53.778Z,14.00
2022-09-26T10:03:47.783Z,20.10
2022-09-26T10:06:45.244Z,16.85
2022-09-26T10:09:35.745Z,16.15
2022-09-26T10:12:30.581Z,15.02
2022-09-26T10:15:22.320Z,16.17
2022-09-26T10:18:25.254Z,20.75
2022-09-26T10:21:17.828Z,15.63
2022-09-26T10:23:51.481Z,16.52
2022-09-26T10:26:37.776Z,15.88
2022-09-26T10:29:24.577Z,16.40
2022-09-26T10:31:57.274Z,17.52
2022-09-26T10:34:34.208Z,17.65
2022-09-26T10:37:29.045Z,16.55
2022-09-26T10:40:45.889Z,14.32
2022-09-26T10:43:25.428Z,15.80
2022-09-26T10:46:10.936Z,15.02
2022-09-26T10:49:02.160Z,16.20
2022-09-26T10:51:55.501Z,15.60
2022-09-26T10:54:32.850Z,13.85
2022-09-26T10:57:00.853Z,13.38
2022-09-26T10:59:33.100Z,14.70
2022-09-26T11:02:02.454Z,14.18
2022-09-26T11:04:51.814Z,16.88
2022-09-26T11:07:43.875Z,14.40
2022-09-26T11:10:46.615Z,13.30
2022-09-26T11:13:32.191Z,13.90
2022-09-26T11:16:13.500Z,13.85
2022-09-26T11:18:58.959Z,12.57
2022-09-26T11:21:32.875Z,14.07
2022-09-26T11:24:15.305Z,14.07
2022-09-26T11:27:05.497Z,12.30
2022-09-26T11:29:52.138Z,13.25
2022-09-26T11:32:33.512Z,13.98
2022-09-26T11:35:54.443Z,11.88
2022-09-26T11:38:24.598Z,11.93
2022-09-26T11:40:57.839Z,12.13
2022-09-26T11:46:41.045Z,10.88
2022-09-26T11:49:37.630Z,11.52
2022-09-26T11:52:49.692Z,12.00
2022-09-26T11:55:30.923Z,10.30
2022-09-26T11:58:16.151Z,12.48
2022-09-26T12:01:03.481Z,10.40
2022-09-26T12:04:15.770Z,12.77
2022-09-26T12:07:07.396Z,9.18
2022-09-26T12:09:48.941Z,8.68
2022-09-26T12:12:40.415Z,10.10
2022-09-26T12:15:38.815Z,8.38
2022-09-26T12:18:06.066Z,8.73
2022-09-26T12:20:56.922Z,10.60
2022-09-26T12:23:58.795Z,11.07
2022-09-26T12:26:46.470Z,11.32
2022-09-26T12:29:41.247Z,10.15
2022-09-26T12:32:29.775Z,11.15
2022-09-26T12:35:04.515Z,9.40
2022-09-26T12:37:41.451Z,9.57
2022-09-26T12:40:51.057Z,9.68
2022-09-26T12:44:15.301Z,10.25
2022-09-26T12:47:03.654Z,11.70
2022-09-26T12:49:36.829Z,9.13
2022-09-26T12:52:27.727Z,10.80
2022-09-26T12:55:04.181Z,11.20
2022-09-26T12:57:46.184Z,9.35
2022-09-26T13:00:18.568Z,10.82
2022-09-26T13:03:23.838Z,9.37
2022-09-26T13:05:50.963Z,11.77
2022-09-26T13:08:41.162Z,7.88
2022-09-26T13:11:32.704Z,8.52
2022-09-26T13:14:10.578Z,10.75
2022-09-26T13:17:06.068Z,9.18
2022-09-26T13:19:37.670Z,8.75
2022-09-26T13:22:21.991Z,7.78
2022-09-26T13:24:54.950Z,6.93
2022-09-26T13:27:28.663Z,10.00
2022-09-26T13:30:04.318Z,7.80
2022-09-26T13:32:53.812Z,6.80
2022-09-26T13:35:29.381Z,8.25
2022-09-26T13:38:17.903Z,7.05
2022-09-26T13:41:23.986Z,6.63
2022-09-26T13:44:28.463Z,10.63
2022-09-26T13:47:16.908Z,8.70
2022-09-26T13:49:51.217Z,8.30
2022-09-26T13:52:29.157Z,8.48
2022-09-26T13:55:03.232Z,7.40
2022-09-26T13:57:49.988Z,7.13
2022-09-26T14:00:24.098Z,7.88
2022-09-26T14:03:09.434Z,7.53
2022-09-26T14:05:43.130Z,7.32
2022-09-26T14:08:44.483Z,6.13
2022-09-26T14:11:45.755Z,7.13
2022-09-26T14:14:19.154Z,6.63
2022-09-26T14:16:51.742Z,8.13
2022-09-26T14:19:37.466Z,7.53
2022-09-26T14:22:20.449Z,7.30
2022-09-26T14:24:49.019Z,7.35
2022-09-26T14:27:16.056Z,6.93
2022-09-26T14:29:58.998Z,7.68
2022-09-26T14:32:30.391Z,7.20
2022-09-26T14:35:00.233Z,8.32
2022-09-26T14:37:49.234Z,5.53
2022-09-26T14:40:24.412Z,7.00
2022-09-26T14:43:03.973Z,4.80
2022-09-26T14:45:30.990Z,4.63
2022-09-26T14:48:14.845Z,4.32
2022-09-26T14:50:50.327Z,6.93
2022-09-26T14:53:20.377Z,4.57
2022-09-26T14:55:58.347Z,6.22
2022-09-26T14:58:34.130Z,5.82
2022-09-26T15:01:04.995Z,4.05
2022-09-26T15:03:34.548Z,4.07
2022-09-26T15:06:04.405Z,3.72
2022-09-26T15:08:39.303Z,3.65
2022-09-26T15:11:07.161Z,4.20
2022-09-26T15:13:38.489Z,3.53
2022-09-26T15:16:37.583Z,3.50
2022-09-26T15:19:12.080Z,3.72
2022-09-26T15:21:43.132Z,5.05
2022-09-26T15:24:32.849Z,5.45
2022-09-26T15:27:07.847Z,7.78
2022-09-26T15:29:37.020Z,4.15
2022-09-26T15:32:06.821Z,4.28
2022-09-26T15:34:38.925Z,5.47
2022-09-26T15:37:17.523Z,6.82
2022-09-26T15:39:44.835Z,8.38
2022-09-26T15:42:33.269Z,4.53
2022-09-26T15:45:01.843Z,4.15
2022-09-26T15:47:28.879Z,5.30
2022-09-26T15:50:10.168Z,9.90
2022-09-26T15:52:52.638Z,4.47
2022-09-26T15:55:23.870Z,6.65
2022-09-26T15:57:53.792Z,5.40
2022-09-26T16:00:21.026Z,5.80
2022-09-26T16:02:48.687Z,5.35
2022-09-26T16:05:16.602Z,6.57
2022-09-26T16:07:50.627Z,7.85
2022-09-26T16:10:28.349Z,6.97
2022-09-26T16:13:00.565Z,8.48
2022-09-26T16:15:30.226Z,5.47
2022-09-26T16:17:58.429Z,7.22
2022-09-26T16:20:29.377Z,6.53
2022-09-26T16:23:05.567Z,8.02
2022-09-26T16:25:53.436Z,8.90
2022-09-26T16:28:39.412Z,7.22
2022-09-26T16:31:07.610Z,9.63
2022-09-26T16:33:39.106Z,10.18
2022-09-26T16:36:23.536Z,8.00
2022-09-26T16:38:55.280Z,8.30
2022-09-26T16:44:34.540Z,7.38
2022-09-26T16:47:05.210Z,10.35
2022-09-26T16:49:32.355Z,8.27
2022-09-26T16:52:28.894Z,9.30
2022-09-26T16:54:58.056Z,8.43
2022-09-26T16:57:27.865Z,6.72
2022-09-26T17:00:18.801Z,8.73
2022-09-26T17:02:46.108Z,7.65
2022-09-26T17:05:19.325Z,7.47
2022-09-26T17:07:48.586Z,7.50
2022-09-26T17:10:18.206Z,9.35
2022-09-26T17:12:50.347Z,8.85
2022-09-26T17:15:28.611Z,10.30
2022-09-26T17:17:56.978Z,8.45
2022-09-26T17:20:24.515Z,9.95
2022-09-26T17:22:51.850Z,9.15
2022-09-26T17:25:19.198Z,9.07
2022-09-26T17:27:51.677Z,10.25
2022-09-26T17:30:19.593Z,8.15
2022-09-26T17:32:50.914Z,10.70
2022-09-26T17:35:31.906Z,9.85
2022-09-26T17:38:00.267Z,8.55
2022-09-26T17:40:30.748Z,10.70
2022-09-26T17:43:01.332Z,7.35
2022-09-26T17:45:43.758Z,7.43
2022-09-26T17:48:33.163Z,7.60
2022-09-26T17:51:02.125Z,6.35
2022-09-26T17:53:46.143Z,5.75
2022-09-26T17:56:16.107Z,6.32
2022-09-26T17:58:44.561Z,7.25
2022-09-26T18:01:34.447Z,7.70
2022-09-26T18:04:06.301Z,6.60
2022-09-26T18:06:33.925Z,6.03
2022-09-26T18:09:07.291Z,4.38
2022-09-26T18:14:04.360Z,4.90
2022-09-26T18:16:31.488Z,3.67
2022-09-26T18:19:01.101Z,8.30
2022-09-26T18:21:31.802Z,7.03
2022-09-26T18:24:02.117Z,4.90
2022-09-26T18:26:32.293Z,3.78
2022-09-26T18:29:05.373Z,6.43
2022-09-26T18:31:36.598Z,2.95
2022-09-26T18:34:03.839Z,4.53
2022-09-26T18:36:35.255Z,3.30
2022-09-26T18:39:02.426Z,3.13
2022-09-26T18:41:29.811Z,3.40
2022-09-26T18:44:00.461Z,3.08
2022-09-26T18:46:29.341Z,3.70
2022-09-26T18:49:06.050Z,6.35
2022-09-26T18:51:33.554Z,3.50
2022-09-26T18:54:01.692Z,2.53
2022-09-26T18:56:47.116Z,5.25
2022-09-26T18:59:14.763Z,3.10
2022-09-26T19:01:43.155Z,3.22
2022-09-26T19:04:20.124Z,3.70
2022-09-26T19:06:58.868Z,3.63
2022-09-26T19:09:30.621Z,2.25
2022-09-26T19:11:57.798Z,3.50
2022-09-26T19:14:27.654Z,2.85
2022-09-26T19:16:55.432Z,3.85
2022-09-26T19:19:22.968Z,3.47
2022-09-26T19:21:53.144Z,2.83
2022-09-26T19:24:26.993Z,3.97
2022-09-26T19:27:01.841Z,5.18
2022-09-26T19:29:42.406Z,3.60
2022-09-26T19:32:19.102Z,3.50
2022-09-26T19:34:53.903Z,4.15
2022-09-26T19:37:21.132Z,4.38
2022-09-26T19:39:48.387Z,3.70
2022-09-26T19:42:15.727Z,2.65
2022-09-26T19:44:42.931Z,2.50
2022-09-26T19:47:15.860Z,2.65
2022-09-26T19:49:43.121Z,3.10
2022-09-26T19:52:16.130Z,3.65
2022-09-26T19:54:45.269Z,3.60
2022-09-26T19:57:22.541Z,4.03
2022-09-26T19:59:50.434Z,6.07
2022-09-26T20:02:20.822Z,3.50
2022-09-26T20:04:48.790Z,4.90
2022-09-26T20:07:18.677Z,4.88
2022-09-26T20:09:46.655Z,3.25
2022-09-26T20:12:13.949Z,3.88
2022-09-26T20:14:41.187Z,4.78
2022-09-26T20:17:23.173Z,3.75
2022-09-26T20:19:58.446Z,6.65
2022-09-26T20:22:26.435Z,4.55
2022-09-26T20:24:57.374Z,3.75
2022-09-26T20:27:27.918Z,7.30
2022-09-26T20:30:14.690Z,8.57
2022-09-26T20:32:42.282Z,9.57
2022-09-26T20:35:14.736Z,6.25
2022-09-26T20:37:42.778Z,4.97
2022-09-26T20:40:19.392Z,3.55
2022-09-26T20:42:50.705Z,3.90
2022-09-26T20:45:22.295Z,3.38
2022-09-26T20:47:49.441Z,3.95
2022-09-26T20:50:18.879Z,4.55
2022-09-26T20:52:46.158Z,3.67
2022-09-26T20:55:18.585Z,3.67
2022-09-26T20:57:46.114Z,4.70
2022-09-26T21:00:18.994Z,3.28
2022-09-26T21:02:51.117Z,4.40
2022-09-26T21:05:22.743Z,4.45
2022-09-26T21:07:51.464Z,3.53
2022-09-26T21:10:27.466Z,3.42
2022-09-26T21:12:55.590Z,4.07
2022-09-26T21:15:24.643Z,5.45
2022-09-26T21:17:53.016Z,5.07
2022-09-26T21:20:29.593Z,2.85
2022-09-26T21:23:10.178Z,3.45
2022-09-26T21:25:37.282Z,3.80
2022-09-26T21:28:27.829Z,3.70
2022-09-26T21:30:57.893Z,5.15
2022-09-26T21:33:25.117Z,4.95
2022-09-26T21:35:52.711Z,4.90
2022-09-26T21:38:20.554Z,4.43
2022-09-26T21:40:53.292Z,6.03
2022-09-26T21:43:24.430Z,5.13
2022-09-26T21:45:51.665Z,3.97
2022-09-26T21:48:18.956Z,5.47
2022-09-26T21:50:57.410Z,2.63
2022-09-26T21:53:32.015Z,2.42
2022-09-26T21:56:07.305Z,3.97
2022-09-26T21:58:38.123Z,4.40
2022-09-26T22:01:05.409Z,5.57
2022-09-26T22:03:32.923Z,2.75
2022-09-26T22:06:03.686Z,3.55
2022-09-26T22:08:34.143Z,2.33
2022-09-26T22:11:03.138Z,3.22
2022-09-26T22:13:30.533Z,4.30
2022-09-26T22:16:13.102Z,3.22
2022-09-26T22:18:41.230Z,4.72
2022-09-26T22:21:10.027Z,5.53
2022-09-26T22:23:38.124Z,4.93
2022-09-26T22:26:05.884Z,2.95
2022-09-26T22:28:33.031Z,5.43
2022-09-26T22:31:01.864Z,3.53
2022-09-26T22:33:29.515Z,2.83
2022-09-26T22:35:57.440Z,4.70
2022-09-26T22:38:24.754Z,4.35
2022-09-26T22:40:59.830Z,4.53
2022-09-26T22:43:27.732Z,3.28
2022-09-26T22:46:01.562Z,4.35
2022-09-26T22:48:33.495Z,3.97
2022-09-26T22:51:00.909Z,7.47
2022-09-26T22:53:31.111Z,4.35
2022-09-26T22:56:04.828Z,5.00
2022-09-26T22:58:35.290Z,5.38
2022-09-26T23:01:04.555Z,3.33
2022-09-26T23:03:33.012Z,2.88
2022-09-26T23:06:00.460Z,3.83
2022-09-26T23:08:28.272Z,3.83
2022-09-26T23:10:56.526Z,3.22
2022-09-26T23:13:27.570Z,2.78
2022-09-26T23:15:55.063Z,3.80
2022-09-26T23:18:22.477Z,2.92
2022-09-26T23:20:49.624Z,3.95
2022-09-26T23:23:16.744Z,3.63
2022-09-26T23:25:48.655Z,3.95
2022-09-26T23:28:17.109Z,3.13
2022-09-26T23:30:44.483Z,4.25
2022-09-26T23:33:11.639Z,4.10
2022-09-26T23:35:38.992Z,3.92
2022-09-26T23:38:06.169Z,4.72
2022-09-26T23:40:34.179Z,4.15
2022-09-26T23:43:02.504Z,2.95
2022-09-26T23:45:30.217Z,4.60
2022-09-26T23:47:57.324Z,2.83
2022-09-26T23:50:24.559Z,5.53
2022-09-26T23:52:51.691Z,4.05
2022-09-26T23:55:18.802Z,3.00
2022-09-26T23:57:45.911Z,3.58
